Norwegian Jade — C6WK7 — position and weather

sailwx.info

Track history (hours):
 
Tides and Currents Weather Stations Pressure Air Temp Water Temp Dewpoint Dewpoint Depression Visibility Wind Speed Wind Dir Waves Ship Positions

Norwegian Jade

Last reported at 2015-Aug-04 23:31 UTC. Time now 2015-Aug-05 06:19 UTC.
Position N 37°46' E 025°48'.

Length 294 m; draft 8.4 m.

Type: Ship. MMSI: 308416000.

Date/timePositionNaut miles runAvg speedWind from/ knotsBaromVisibWave heightAir tempDewpointWater temp
2015-Aug-04 23:31N 37°46' E 025°48'1515.4
2015-Aug-04 22:33N 37°38' E 025°32'1515.0
2015-Aug-04 21:33N 37°31' E 025°15'1414.2
2015-Aug-04 20:33N 37°33' E 024°57'3314.8
2015-Aug-04 18:20N 37°29' E 024°16'1215.0
2015-Aug-04 17:31N 37°33' E 024°01'1515.4
2015-Aug-04 16:33N 37°39' E 023°44'1515.3
2015-Aug-04 15:34N 37°53' E 023°37'3 3.4
2015-Aug-04 14:33N 37°56' E 023°38'0 0.0
2015-Aug-04 13:32N 37°56' E 023°38'0 0.0
2015-Aug-04 12:32N 37°56' E 023°38'0 0.0
2015-Aug-04 11:31N 37°56' E 023°38'0 0.0
2015-Aug-04 10:31N 37°56' E 023°38'0 0.0
2015-Aug-04 09:33N 37°56' E 023°38'0 0.0
2015-Aug-04 08:30N 37°56' E 023°38'0 0.0
2015-Aug-04 07:33N 37°56' E 023°38'0 0.0
2015-Aug-04 05:33N 37°56' E 023°38'1 1.4
2015-Aug-04 04:33N 37°56' E 023°36'1 0.6
2015-Aug-04 03:34N 37°55' E 023°36'3 3.2
2015-Aug-04 02:34N 37°53' E 023°38'1414.2
2015-Aug-04 01:33N 37°39' E 023°44'1615.7
2015-Aug-04 00:33N 37°24' E 023°43'1716.7
2015-Aug-03 23:33N 37°07' E 023°38'3215.9
2015-Aug-03 21:33N 36°38' E 023°24'10215.5
2015-Aug-03 15:00N 36°48' E 021°18'10719.7 260 / 151012.0 0.529.026.026.0
2015-Aug-03 09:32N 38°19' E 020°07'2719.8
2015-Aug-03 08:09N 38°45' E 019°53'1219.8
2015-Aug-03 07:33N 38°55' E 019°47'4520.0
2015-Aug-03 05:18N 39°36' E 019°23'4519.6
2015-Aug-03 03:00N 40°18' E 019°00'1522.8 230 / 131014.0 27.024.026.0
2015-Aug-03 02:20N 40°33' E 018°55'1620.2
2015-Aug-03 01:33N 40°47' E 018°49'2020.0
2015-Aug-03 00:33N 41°07' E 018°41'2619.7
2015-Aug-02 23:14N 41°31' E 018°30'1520.0
2015-Aug-02 22:29N 41°45' E 018°24'1920.0
2015-Aug-02 21:33N 42°03' E 018°16'2019.7
2015-Aug-02 20:33N 42°22' E 018°07'  
2015-Jul-31 04:32N 40°42' E 018°21'7518.7
2015-Jul-31 00:32N 39°37' E 019°10'282 9.7
2015-Jul-29 19:33N 36°27' E 023°35'3215.9
2015-Jul-29 17:33N 36°46' E 024°07'1716.5
2015-Jul-29 16:33N 36°57' E 024°22'2016.5
2015-Jul-29 15:20N 37°09' E 024°42'1316.8
2015-Jul-29 14:33N 37°16' E 024°56'1717.1
2015-Jul-29 13:34N 37°28' E 025°11'6 6.0
2015-Jul-29 12:31N 37°28' E 025°19'0 0.0
2015-Jul-29 11:31N 37°28' E 025°19'0 0.0
2015-Jul-29 10:33N 37°28' E 025°19'0 0.0
2015-Jul-29 09:33N 37°28' E 025°19'0 0.0
2015-Jul-29 08:32N 37°28' E 025°19'0 0.0
2015-Jul-29 07:32N 37°28' E 025°19'0 0.0
2015-Jul-29 06:32N 37°28' E 025°19'0 0.0
2015-Jul-29 05:31N 37°28' E 025°19'0 0.0
2015-Jul-29 04:33N 37°28' E 025°19'8 8.0
2015-Jul-29 03:33N 37°26' E 025°10'1211.9
2015-Jul-29 02:33N 37°16' E 025°02'1211.7
2015-Jul-29 01:32N 37°05' E 024°55'1110.5
2015-Jul-29 00:31N 36°55' E 024°51'1010.6
2015-Jul-28 23:32N 36°45' E 024°47'10 9.6
2015-Jul-28 22:30N 36°36' E 024°45'1010.2
2015-Jul-28 21:33N 36°30' E 024°55'1010.4
2015-Jul-28 20:33N 36°26' E 025°07'1010.3
2015-Jul-28 19:33N 36°23' E 025°19'5 4.9
2015-Jul-28 18:32N 36°25' E 025°25'0 0.0
2015-Jul-28 17:33N 36°25' E 025°25'0 0.0
2015-Jul-28 16:33N 36°25' E 025°25'0 0.0
2015-Jul-28 15:34N 36°25' E 025°25'0 0.0
2015-Jul-28 14:32N 36°25' E 025°25'0 0.0
2015-Jul-28 13:32N 36°25' E 025°25'0 0.3
2015-Jul-28 12:33N 36°25' E 025°25'0 0.1
2015-Jul-28 11:32N 36°25' E 025°25'0 0.0
2015-Jul-28 10:32N 36°25' E 025°25'8 8.3
2015-Jul-28 09:33N 36°23' E 025°15'1616.3
2015-Jul-28 08:33N 36°21' E 024°55'1616.5
2015-Jul-28 07:33N 36°20' E 024°34'1616.5
2015-Jul-28 06:34N 36°20' E 024°14'2020.2
2015-Jul-28 05:34N 36°20' E 023°49'2020.0
2015-Jul-28 04:33N 36°22' E 023°24'2120.6
2015-Jul-28 03:33N 36°25' E 022°59'20516.3
2015-Jul-27 15:00N 39°06' E 020°18'110 6.7 270 / 201007.0 1.028.025.027.0
2015-Jul-26 22:33N 40°31' E 018°47'  
Track history (hours):
 
Tides and Currents Weather Stations Pressure Air Temp Water Temp Dewpoint Dewpoint Depression Visibility Wind Speed Wind Dir Waves Ship Positions

Norwegian Jade

Last reported at 2015-Aug-04 23:31 UTC. Time now 2015-Aug-05 06:19 UTC.
Position N 37°46' E 025°48'.

Length 294 m; draft 8.4 m.

Type: Ship. MMSI: 308416000.

Date/timePositionNaut miles runAvg speedWind from/ knotsBaromVisibWave heightAir tempDewpointWater temp
2015-Aug-04 23:31N 37°46' E 025°48'1515.4
2015-Aug-04 22:33N 37°38' E 025°32'1515.0
2015-Aug-04 21:33N 37°31' E 025°15'1414.2
2015-Aug-04 20:33N 37°33' E 024°57'3314.8
2015-Aug-04 18:20N 37°29' E 024°16'1215.0
2015-Aug-04 17:31N 37°33' E 024°01'1515.4
2015-Aug-04 16:33N 37°39' E 023°44'1515.3
2015-Aug-04 15:34N 37°53' E 023°37'3 3.4
2015-Aug-04 14:33N 37°56' E 023°38'0 0.0
2015-Aug-04 13:32N 37°56' E 023°38'0 0.0
2015-Aug-04 12:32N 37°56' E 023°38'0 0.0
2015-Aug-04 11:31N 37°56' E 023°38'0 0.0
2015-Aug-04 10:31N 37°56' E 023°38'0 0.0
2015-Aug-04 09:33N 37°56' E 023°38'0 0.0
2015-Aug-04 08:30N 37°56' E 023°38'0 0.0
2015-Aug-04 07:33N 37°56' E 023°38'0 0.0
2015-Aug-04 05:33N 37°56' E 023°38'1 1.4
2015-Aug-04 04:33N 37°56' E 023°36'1 0.6
2015-Aug-04 03:34N 37°55' E 023°36'3 3.2
2015-Aug-04 02:34N 37°53' E 023°38'1414.2
2015-Aug-04 01:33N 37°39' E 023°44'1615.7
2015-Aug-04 00:33N 37°24' E 023°43'1716.7
2015-Aug-03 23:33N 37°07' E 023°38'3215.9
2015-Aug-03 21:33N 36°38' E 023°24'10215.5
2015-Aug-03 15:00N 36°48' E 021°18'10719.7 260 / 151012.0 0.529.026.026.0
2015-Aug-03 09:32N 38°19' E 020°07'2719.8
2015-Aug-03 08:09N 38°45' E 019°53'1219.8
2015-Aug-03 07:33N 38°55' E 019°47'4520.0
2015-Aug-03 05:18N 39°36' E 019°23'4519.6
2015-Aug-03 03:00N 40°18' E 019°00'1522.8 230 / 131014.0 27.024.026.0
2015-Aug-03 02:20N 40°33' E 018°55'1620.2
2015-Aug-03 01:33N 40°47' E 018°49'2020.0
2015-Aug-03 00:33N 41°07' E 018°41'2619.7
2015-Aug-02 23:14N 41°31' E 018°30'1520.0
2015-Aug-02 22:29N 41°45' E 018°24'1920.0
2015-Aug-02 21:33N 42°03' E 018°16'2019.7
2015-Aug-02 20:33N 42°22' E 018°07'  
2015-Jul-31 04:32N 40°42' E 018°21'7518.7
2015-Jul-31 00:32N 39°37' E 019°10'282 9.7
2015-Jul-29 19:33N 36°27' E 023°35'3215.9
2015-Jul-29 17:33N 36°46' E 024°07'1716.5
2015-Jul-29 16:33N 36°57' E 024°22'2016.5
2015-Jul-29 15:20N 37°09' E 024°42'1316.8
2015-Jul-29 14:33N 37°16' E 024°56'1717.1
2015-Jul-29 13:34N 37°28' E 025°11'6 6.0
2015-Jul-29 12:31N 37°28' E 025°19'0 0.0
2015-Jul-29 11:31N 37°28' E 025°19'0 0.0
2015-Jul-29 10:33N 37°28' E 025°19'0 0.0
2015-Jul-29 09:33N 37°28' E 025°19'0 0.0
2015-Jul-29 08:32N 37°28' E 025°19'0 0.0
2015-Jul-29 07:32N 37°28' E 025°19'0 0.0
2015-Jul-29 06:32N 37°28' E 025°19'0 0.0
2015-Jul-29 05:31N 37°28' E 025°19'0 0.0
2015-Jul-29 04:33N 37°28' E 025°19'8 8.0
2015-Jul-29 03:33N 37°26' E 025°10'1211.9
2015-Jul-29 02:33N 37°16' E 025°02'1211.7
2015-Jul-29 01:32N 37°05' E 024°55'1110.5
2015-Jul-29 00:31N 36°55' E 024°51'1010.6
2015-Jul-28 23:32N 36°45' E 024°47'10 9.6
2015-Jul-28 22:30N 36°36' E 024°45'1010.2
2015-Jul-28 21:33N 36°30' E 024°55'1010.4
2015-Jul-28 20:33N 36°26' E 025°07'1010.3
2015-Jul-28 19:33N 36°23' E 025°19'5 4.9
2015-Jul-28 18:32N 36°25' E 025°25'0 0.0
2015-Jul-28 17:33N 36°25' E 025°25'0 0.0
2015-Jul-28 16:33N 36°25' E 025°25'0 0.0
2015-Jul-28 15:34N 36°25' E 025°25'0 0.0
2015-Jul-28 14:32N 36°25' E 025°25'0 0.0
2015-Jul-28 13:32N 36°25' E 025°25'0 0.3
2015-Jul-28 12:33N 36°25' E 025°25'0 0.1
2015-Jul-28 11:32N 36°25' E 025°25'0 0.0
2015-Jul-28 10:32N 36°25' E 025°25'8 8.3
2015-Jul-28 09:33N 36°23' E 025°15'1616.3
2015-Jul-28 08:33N 36°21' E 024°55'1616.5
2015-Jul-28 07:33N 36°20' E 024°34'1616.5
2015-Jul-28 06:34N 36°20' E 024°14'2020.2
2015-Jul-28 05:34N 36°20' E 023°49'2020.0
2015-Jul-28 04:33N 36°22' E 023°24'2120.6
2015-Jul-28 03:33N 36°25' E 022°59'20516.3
2015-Jul-27 15:00N 39°06' E 020°18'110 6.7 270 / 201007.0 1.028.025.027.0
2015-Jul-26 22:33N 40°31' E 018°47'  

Dump ship's entire track history